Samus Swan — 9HA2333 — position and weather

sailwx.info

Track history (hours):
 
Tides and Currents Weather Stations Pressure Air Temp Water Temp Dewpoint Dewpoint Depression Visibility Wind Speed Wind Dir Waves Ship Positions

Samus Swan

Last reported at 2015-Aug-31 05:15 UTC. Time now 2015-Sep-02 08:40 UTC.
Position N 29°21' W 094°44'.

Length 106 m; draft 6.5 m.

Type: Ship (hazmat cat B). MMSI: 248363000.

Date/timePositionNaut miles runAvg speedWind from/ knotsBaromVisibWave heightAir tempDewpointWater temp
2015-Aug-31 05:15N 29°21' W 094°44'912.8
2015-Aug-31 04:33N 29°28' W 094°51'1312.7
2015-Aug-31 03:33N 29°39' W 094°58'9 9.3
2015-Aug-31 02:33N 29°46' W 095°05'1 0.1
2015-Aug-30 12:33N 29°45' W 095°06'9 8.7
2015-Aug-30 11:33N 29°39' W 094°58'1413.8
2015-Aug-30 10:31N 29°27' W 094°51'  
2015-Aug-27 08:26N 29°19' W 094°38'1010.9
2015-Aug-27 07:33N 29°22' W 094°48'1212.1
2015-Aug-27 06:33N 29°33' W 094°54'1312.5
2015-Aug-27 05:33N 29°44' W 095°01'1 0.0
2015-Aug-25 23:33N 29°44' W 095°02'1010.4
2015-Aug-25 22:33N 29°35' W 094°56'1312.9
2015-Aug-25 21:34N 29°24' W 094°49'  
Track history (hours):
 
Tides and Currents Weather Stations Pressure Air Temp Water Temp Dewpoint Dewpoint Depression Visibility Wind Speed Wind Dir Waves Ship Positions

Samus Swan

Last reported at 2015-Aug-31 05:15 UTC. Time now 2015-Sep-02 08:40 UTC.
Position N 29°21' W 094°44'.

Length 106 m; draft 6.5 m.

Type: Ship (hazmat cat B). MMSI: 248363000.

Date/timePositionNaut miles runAvg speedWind from/ knotsBaromVisibWave heightAir tempDewpointWater temp
2015-Aug-31 05:15N 29°21' W 094°44'912.8
2015-Aug-31 04:33N 29°28' W 094°51'1312.7
2015-Aug-31 03:33N 29°39' W 094°58'9 9.3
2015-Aug-31 02:33N 29°46' W 095°05'1 0.1
2015-Aug-30 12:33N 29°45' W 095°06'9 8.7
2015-Aug-30 11:33N 29°39' W 094°58'1413.8
2015-Aug-30 10:31N 29°27' W 094°51'  
2015-Aug-27 08:26N 29°19' W 094°38'1010.9
2015-Aug-27 07:33N 29°22' W 094°48'1212.1
2015-Aug-27 06:33N 29°33' W 094°54'1312.5
2015-Aug-27 05:33N 29°44' W 095°01'1 0.0
2015-Aug-25 23:33N 29°44' W 095°02'1010.4
2015-Aug-25 22:33N 29°35' W 094°56'1312.9
2015-Aug-25 21:34N 29°24' W 094°49'  

Dump ship's entire track history